Sara K — WBP4759 — position and weather

sailwx.info

Track history (hours):
 
Tides and Currents Weather Stations Pressure Air Temp Water Temp Dewpoint Dewpoint Depression Visibility Wind Speed Wind Dir Waves Ship Positions

Sara K

Owner: The Tug Sara K, L.L.C., SUGAR LAND, TX. More information available from US FCC via Universal Licensing System and Coast Guard Vessel Documentation Center.

Last reported at 2018-Feb-19 15:08 UTC. Time now 2018-Feb-19 21:37 UTC.
Position N 29°48' W 095°04'.

Length 14 m.

Type: Towing. MMSI: 366986670.

Date/timePositionNaut miles runAvg speedWind from/ knotsBaromVisibWave heightAir tempDewpointWater temp
2018-Feb-19 15:08N 29°48' W 095°04'0 0.7
2018-Feb-19 14:59N 29°48' W 095°04'0 0.4
2018-Feb-19 14:19N 29°48' W 095°04'0 0.0
2018-Feb-19 13:57N 29°48' W 095°04'0 0.0
2018-Feb-19 13:28N 29°48' W 095°04'0 0.0
2018-Feb-19 10:13N 29°48' W 095°04'0 0.0
2018-Feb-19 09:58N 29°48' W 095°04'0 0.0
2018-Feb-19 09:30N 29°48' W 095°04'0 0.1
2018-Feb-19 08:45N 29°48' W 095°04'0 0.0
2018-Feb-19 08:24N 29°48' W 095°04'0 0.0
2018-Feb-19 07:28N 29°48' W 095°04'0 0.2
2018-Feb-19 07:00N 29°48' W 095°04'0 0.2
2018-Feb-19 06:12N 29°48' W 095°04'0 0.4
2018-Feb-19 05:57N 29°48' W 095°04'0 0.0
2018-Feb-19 05:30N 29°48' W 095°04'1 0.0
2018-Feb-17 19:22N 29°47' W 095°04'2 0.1
2018-Feb-17 04:12N 29°46' W 095°04'1 4.4
2018-Feb-17 04:00N 29°45' W 095°04'2 4.2
2018-Feb-17 03:31N 29°44' W 095°02'0 0.1
2018-Feb-17 02:40N 29°44' W 095°02'1 5.6
2018-Feb-17 02:27N 29°44' W 095°03'4 0.4
2018-Feb-16 15:48N 29°48' W 095°04'0 0.1
2018-Feb-16 13:59N 29°48' W 095°04'0 0.0
2018-Feb-16 06:00N 29°48' W 095°04'0 0.2
2018-Feb-16 05:11N 29°48' W 095°04'0 1.1
2018-Feb-16 05:00N 29°48' W 095°04'1 1.5
2018-Feb-16 04:29N 29°47' W 095°04'0 0.8
2018-Feb-16 03:59N 29°47' W 095°04'0 0.6
2018-Feb-16 03:21N 29°47' W 095°04'1 1.6
2018-Feb-16 02:53N 29°48' W 095°04'0 0.0
2018-Feb-16 02:30N 29°48' W 095°04'0 0.3
2018-Feb-16 01:55N 29°48' W 095°04'1 0.0
2018-Feb-15 09:30N 29°47' W 095°04'1 0.6
2018-Feb-15 08:30N 29°48' W 095°04'0 0.5
2018-Feb-15 08:00N 29°48' W 095°04'0 0.0
2018-Feb-15 07:15N 29°48' W 095°04'0 0.0
2018-Feb-15 06:53N 29°48' W 095°04'0 0.0
2018-Feb-15 06:18N 29°48' W 095°04'0 0.0
2018-Feb-15 05:58N 29°48' W 095°04'0 0.0
2018-Feb-15 05:28N 29°48' W 095°04'0 0.0
2018-Feb-15 04:59N 29°48' W 095°04'0 0.0
2018-Feb-15 04:23N 29°48' W 095°04'1 0.1
2018-Feb-14 15:17N 29°47' W 095°04'  
2018-Feb-12 01:13N 29°47' W 095°04'  
Track history (hours):
 
Tides and Currents Weather Stations Pressure Air Temp Water Temp Dewpoint Dewpoint Depression Visibility Wind Speed Wind Dir Waves Ship Positions

Sara K

Owner: The Tug Sara K, L.L.C., SUGAR LAND, TX. More information available from US FCC via Universal Licensing System and Coast Guard Vessel Documentation Center.

Last reported at 2018-Feb-19 15:08 UTC. Time now 2018-Feb-19 21:37 UTC.
Position N 29°48' W 095°04'.

Length 14 m.

Type: Towing. MMSI: 366986670.

Date/timePositionNaut miles runAvg speedWind from/ knotsBaromVisibWave heightAir tempDewpointWater temp
2018-Feb-19 15:08N 29°48' W 095°04'0 0.7
2018-Feb-19 14:59N 29°48' W 095°04'0 0.4
2018-Feb-19 14:19N 29°48' W 095°04'0 0.0
2018-Feb-19 13:57N 29°48' W 095°04'0 0.0
2018-Feb-19 13:28N 29°48' W 095°04'0 0.0
2018-Feb-19 10:13N 29°48' W 095°04'0 0.0
2018-Feb-19 09:58N 29°48' W 095°04'0 0.0
2018-Feb-19 09:30N 29°48' W 095°04'0 0.1
2018-Feb-19 08:45N 29°48' W 095°04'0 0.0
2018-Feb-19 08:24N 29°48' W 095°04'0 0.0
2018-Feb-19 07:28N 29°48' W 095°04'0 0.2
2018-Feb-19 07:00N 29°48' W 095°04'0 0.2
2018-Feb-19 06:12N 29°48' W 095°04'0 0.4
2018-Feb-19 05:57N 29°48' W 095°04'0 0.0
2018-Feb-19 05:30N 29°48' W 095°04'1 0.0
2018-Feb-17 19:22N 29°47' W 095°04'2 0.1
2018-Feb-17 04:12N 29°46' W 095°04'1 4.4
2018-Feb-17 04:00N 29°45' W 095°04'2 4.2
2018-Feb-17 03:31N 29°44' W 095°02'0 0.1
2018-Feb-17 02:40N 29°44' W 095°02'1 5.6
2018-Feb-17 02:27N 29°44' W 095°03'4 0.4
2018-Feb-16 15:48N 29°48' W 095°04'0 0.1
2018-Feb-16 13:59N 29°48' W 095°04'0 0.0
2018-Feb-16 06:00N 29°48' W 095°04'0 0.2
2018-Feb-16 05:11N 29°48' W 095°04'0 1.1
2018-Feb-16 05:00N 29°48' W 095°04'1 1.5
2018-Feb-16 04:29N 29°47' W 095°04'0 0.8
2018-Feb-16 03:59N 29°47' W 095°04'0 0.6
2018-Feb-16 03:21N 29°47' W 095°04'1 1.6
2018-Feb-16 02:53N 29°48' W 095°04'0 0.0
2018-Feb-16 02:30N 29°48' W 095°04'0 0.3
2018-Feb-16 01:55N 29°48' W 095°04'1 0.0
2018-Feb-15 09:30N 29°47' W 095°04'1 0.6
2018-Feb-15 08:30N 29°48' W 095°04'0 0.5
2018-Feb-15 08:00N 29°48' W 095°04'0 0.0
2018-Feb-15 07:15N 29°48' W 095°04'0 0.0
2018-Feb-15 06:53N 29°48' W 095°04'0 0.0
2018-Feb-15 06:18N 29°48' W 095°04'0 0.0
2018-Feb-15 05:58N 29°48' W 095°04'0 0.0
2018-Feb-15 05:28N 29°48' W 095°04'0 0.0
2018-Feb-15 04:59N 29°48' W 095°04'0 0.0
2018-Feb-15 04:23N 29°48' W 095°04'1 0.1
2018-Feb-14 15:17N 29°47' W 095°04'  
2018-Feb-12 01:13N 29°47' W 095°04'  

Dump ship's entire track history